地図

経路データ

SID SEASON NUMBER BASIN SUBBASIN NAME ISO_TIME NATURE LAT LON WMO_WIND WMO_PRES WMO_AGENCY TRACK_TYPE DIST2LAND LANDFALL IFLAG USA_AGENCY USA_ATCF_ID USA_LAT USA_LON USA_RECORD USA_STATUS USA_WIND USA_PRES USA_SSHS USA_R34_NE USA_R34_SE USA_R34_SW USA_R34_NW USA_R50_NE USA_R50_SE USA_R50_SW USA_R50_NW USA_R64_NE USA_R64_SE USA_R64_SW USA_R64_NW USA_POCI USA_ROCI USA_RMW USA_EYE TOKYO_LAT TOKYO_LON TOKYO_GRADE TOKYO_WIND TOKYO_PRES TOKYO_R50_DIR TOKYO_R50_LONG TOKYO_R50_SHORT TOKYO_R30_DIR TOKYO_R30_LONG TOKYO_R30_SHORT TOKYO_LAND CMA_LAT CMA_LON CMA_CAT CMA_WIND CMA_PRES HKO_LAT HKO_LON HKO_CAT HKO_WIND HKO_PRES NEWDELHI_LAT NEWDELHI_LON NEWDELHI_GRADE NEWDELHI_WIND NEWDELHI_PRES NEWDELHI_CI NEWDELHI_DP NEWDELHI_POCI REUNION_LAT REUNION_LON REUNION_TYPE REUNION_WIND REUNION_PRES REUNION_TNUM REUNION_CI REUNION_RMW REUNION_R34_NE REUNION_R34_SE REUNION_R34_SW REUNION_R34_NW REUNION_R50_NE REUNION_R50_SE REUNION_R50_SW REUNION_R50_NW REUNION_R64_NE REUNION_R64_SE REUNION_R64_SW REUNION_R64_NW BOM_LAT BOM_LON BOM_TYPE BOM_WIND BOM_PRES BOM_TNUM BOM_CI BOM_RMW BOM_R34_NE BOM_R34_SE BOM_R34_SW BOM_R34_NW BOM_R50_NE BOM_R50_SE BOM_R50_SW BOM_R50_NW BOM_R64_NE BOM_R64_SE BOM_R64_SW BOM_R64_NW BOM_ROCI BOM_POCI BOM_EYE BOM_POS_METHOD BOM_PRES_METHOD NADI_LAT NADI_LON NADI_CAT NADI_WIND NADI_PRES WELLINGTON_LAT WELLINGTON_LON WELLINGTON_WIND WELLINGTON_PRES DS824_LAT DS824_LON DS824_STAGE DS824_WIND DS824_PRES TD9636_LAT TD9636_LON TD9636_STAGE TD9636_WIND TD9636_PRES TD9635_LAT TD9635_LON TD9635_WIND TD9635_PRES TD9635_ROCI NEUMANN_LAT NEUMANN_LON NEUMANN_CLASS NEUMANN_WIND NEUMANN_PRES MLC_LAT MLC_LON MLC_CLASS MLC_WIND MLC_PRES USA_GUST BOM_GUST BOM_GUST_PER REUNION_GUST REUNION_GUST_PER USA_SEAHGT USA_SEARAD_NE USA_SEARAD_SE USA_SEARAD_SW USA_SEARAD_NW STORM_SPEED STORM_DIR
1900237N21090 1900 20 NI BB NOT_NAMED 1900-08-25 00:00:00 TS 20.7000 89.7000 main 116 116 _________O____ -1 20.7000 89.7000 TC 30 0 0
1900237N21090 1900 20 NI BB NOT_NAMED 1900-08-25 03:00:00 TS 20.7000 89.7000 main 116 116 _________PO___ -1 20.7000 89.7000 TC 30 20.7000 89.7000 1 0 0
1900237N21090 1900 20 NI BB NOT_NAMED 1900-08-25 06:00:00 TS 20.7082 89.6876 main 116 116 _________OP___ -1 20.7000 89.7000 TC 30 20.7205 89.6690 1 0 0
1900237N21090 1900 20 NI BB NOT_NAMED 1900-08-25 09:00:00 TS 20.7141 89.6788 main 116 116 _________PP___ -1 20.7000 89.7000 TC 30 20.7328 89.6504 1 0 0
1900237N21090 1900 20 NI BB NOT_NAMED 1900-08-25 12:00:00 TS 20.7143 89.6783 main 116 116 _________OP___ -1 20.7000 89.7000 TC 30 20.7287 89.6566 1 0 0
1900237N21090 1900 20 NI BB NOT_NAMED 1900-08-25 15:00:00 TS 20.7000 89.7000 main 116 116 _________PO___ -1 20.7000 89.7000 TC 30 20.7000 89.7000 1 1 127
1900237N21090 1900 20 NI BB NOT_NAMED 1900-08-25 18:00:00 TS 20.6734 89.7402 main 116 116 _________OP___ -1 20.7000 89.7000 TC 30 20.6467 89.7805 1 1 125
1900237N21090 1900 20 NI BB NOT_NAMED 1900-08-25 21:00:00 TS 20.6320 89.8042 main 129 129 _________PP___ -1 20.6624 89.7598 TC 30 20.6016 89.8485 1 0 121
1900237N21090 1900 20 NI BB NOT_NAMED 1900-08-26 00:00:00 TS 20.6528 89.7712 main 119 102 _________OP___ -1 20.7000 89.7000 TC 30 20.6057 89.8424 1 3 304
1900237N21090 1900 20 NI BB NOT_NAMED 1900-08-26 03:00:00 TS 20.7950 89.5449 main 98 67 _________PO___ -1 20.8899 89.3898 TC 30 20.7000 89.7000 1 7 304
1900237N21090 1900 20 NI BB NOT_NAMED 1900-08-26 06:00:00 TS 21.0662 89.1224 main 55 24 _________OP___ -1 21.2000 88.9000 TC 30 20.9324 89.3448 1 11 305
1900237N21090 1900 20 NI BB NOT_NAMED 1900-08-26 09:00:00 TS 21.4232 88.5834 main 24 0 _________PP___ -1 21.5927 88.3154 TC 30 21.2537 88.8514 1 13 305
1900237N21090 1900 20 NI BB NOT_NAMED 1900-08-26 12:00:00 TS 21.8115 87.9911 main 10 0 _________OP___ -1 22.0000 87.7000 TC 30 21.6230 88.2822 1 13 305
1900237N21090 1900 20 NI BB NOT_NAMED 1900-08-26 15:00:00 TS 22.1536 87.4422 main 0 0 _________PO___ -1 22.3072 87.1844 TC 30 22.0000 87.7000 1 12 304
1900237N21090 1900 20 NI BB NOT_NAMED 1900-08-26 18:00:00 TS 22.4726 86.9419 main 0 0 _________OP___ -1 22.6000 86.7000 TC 30 22.3452 87.1839 1 12 306
1900237N21090 1900 20 NI BB NOT_NAMED 1900-08-26 21:00:00 TS 22.8262 86.4277 main 0 0 _________PP___ -1 22.9650 86.1852 TC 30 22.6874 86.6703 1 12 306
1900237N21090 1900 20 NI BB NOT_NAMED 1900-08-27 00:00:00 TS 23.1554 85.9357 main 0 0 _________OP___ -1 23.3000 85.7000 TC 30 23.0109 86.1715 1 10 304
1900237N21090 1900 20 NI BB NOT_NAMED 1900-08-27 03:00:00 TS 23.4111 85.4923 main 0 0 _________PO___ -1 23.5223 85.2846 TC 30 23.3000 85.7000 1 9 301
1900237N21090 1900 20 NI BB NOT_NAMED 1900-08-27 06:00:00 TS 23.6114 85.0929 main 0 0 _________OP___ -1 23.7000 84.9000 TC 30 23.5227 85.2858 1 8 299
1900237N21090 1900 20 NI BB NOT_NAMED 1900-08-27 09:00:00 TS 23.8029 84.7062 main 0 0 _________PP___ -1 23.8923 84.5147 TC 30 23.7136 84.8977 1 8 298
1900237N21090 1900 20 NI BB NOT_NAMED 1900-08-27 12:00:00 TS 23.9989 84.3054 main 0 0 _________OP___ -1 24.1000 84.1000 TC 30 23.8977 84.5108 1 9 298
1900237N21090 1900 20 NI BB NOT_NAMED 1900-08-27 15:00:00 TS 24.2175 83.8574 main 0 0 _________PO___ -1 24.3350 83.6149 TC 30 24.1000 84.1000 1 10 299
1900237N21090 1900 20 NI BB NOT_NAMED 1900-08-27 18:00:00 TS 24.4893 83.3406 main 0 0 _________OP___ -1 24.6000 83.1000 TC 30 24.3787 83.5813 1 11 301
1900237N21090 1900 20 NI BB NOT_NAMED 1900-08-27 21:00:00 TS 24.7982 82.7986 main 0 0 _________PP___ -1 24.9227 82.5554 TC 30 24.6738 83.0419 1 11 302
1900237N21090 1900 20 NI BB NOT_NAMED 1900-08-28 00:00:00 TS 25.0784 82.3156 main 0 0 _________OP___ -1 25.2000 82.1000 TC 30 24.9569 82.5313 1 9 302
1900237N21090 1900 20 NI BB NOT_NAMED 1900-08-28 03:00:00 TS 25.2611 81.9773 main 0 0 _________PO___ -1 25.3222 81.8545 TC 30 25.2000 82.1000 1 6 301
1900237N21090 1900 20 NI BB NOT_NAMED 1900-08-28 06:00:00 TS 25.3856 81.7522 main 0 0 _________OP___ -1 25.4000 81.7000 TC 30 25.3712 81.8044 1 5 304
1900237N21090 1900 20 NI BB NOT_NAMED 1900-08-28 09:00:00 TS 25.5257 81.5431 main 0 0 _________PP___ -1 25.5500 81.4925 TC 30 25.5013 81.5936 1 4 308
1900237N21090 1900 20 NI BB NOT_NAMED 1900-08-28 12:00:00 TS 25.6529 81.3680 main 0 0 _________OP___ -1 25.7000 81.3000 TC 30 25.6059 81.4360 1 4 308
1900237N21090 1900 20 NI BB NOT_NAMED 1900-08-28 15:00:00 TS 25.7537 81.2212 main 0 0 _________PO___ -1 25.8075 81.1424 TC 30 25.7000 81.3000 1 3 306
1900237N21090 1900 20 NI BB NOT_NAMED 1900-08-28 18:00:00 TS 25.8556 81.0617 main 0 0 _________OP___ -1 25.9000 81.0000 TC 30 25.8112 81.1233 1 4 306
1900237N21090 1900 20 NI BB NOT_NAMED 1900-08-28 21:00:00 TS 25.9612 80.9025 main 0 0 _________PP___ -1 26.0075 80.8425 TC 30 25.9149 80.9624 1 3 306
1900237N21090 1900 20 NI BB NOT_NAMED 1900-08-29 00:00:00 TS 26.0556 80.7601 main 0 0 _________OP___ -1 26.1000 80.7000 TC 30 26.0112 80.8203 1 3 305
1900237N21090 1900 20 NI BB NOT_NAMED 1900-08-29 03:00:00 TS 26.1250 80.6425 main 0 0 _________PO___ -1 26.1500 80.5850 TC 30 26.1000 80.7000 1 2 307
1900237N21090 1900 20 NI BB NOT_NAMED 1900-08-29 06:00:00 TS 26.1931 80.5517 main 0 0 _________OP___ -1 26.2000 80.5000 TC 30 26.1862 80.6033 1 2 318
1900237N21090 1900 20 NI BB NOT_NAMED 1900-08-29 09:00:00 TS 26.2824 80.4849 main 0 0 _________PP___ -1 26.3000 80.4425 TC 30 26.2649 80.5274 1 2 328
1900237N21090 1900 20 NI BB NOT_NAMED 1900-08-29 12:00:00 TS 26.3681 80.4314 main 0 0 _________OP___ -1 26.4000 80.4000 TC 30 26.3362 80.4627 1 2 326
1900237N21090 1900 20 NI BB NOT_NAMED 1900-08-29 15:00:00 TS 26.4287 80.3787 main 0 0 _________PO___ -1 26.4575 80.3575 TC 30 26.4000 80.4000 1 1 316
1900237N21090 1900 20 NI BB NOT_NAMED 1900-08-29 18:00:00 TS 26.4752 80.3181 main 0 0 _________OP___ -1 26.5000 80.3000 TC 30 26.4566 80.3316 1 2 307
1900237N21090 1900 20 NI BB NOT_NAMED 1900-08-29 21:00:00 TS 26.5236 80.2386 main 0 0 _________PP___ -1 26.5475 80.2100 TC 30 26.5076 80.2576 1 2 302
1900237N21090 1900 20 NI BB NOT_NAMED 1900-08-30 00:00:00 TS 26.5698 80.1532 main 0 0 _________OP___ -1 26.6000 80.1000 TC 30 26.5547 80.1798 1 1 301
1900237N21090 1900 20 NI BB NOT_NAMED 1900-08-30 03:00:00 NR 26.6000 80.1000 main 0 __________O___ -1 TC 26.6000 80.1000 1 1 303

IBTrACS Databaseについて

本データベースは、米国NOAAが公開する1842年以降の世界の熱帯低気圧のベストトラックデータアーカイブInternational Best Track Archive for Climate Stewardship (IBTrACS)を、ウェブで閲覧しやすい形式に変換したものです。

最終更新日:2021-11-26